Terminal Aerodrome Forecast
Issued by NWS Oklahoma City, OK

Home | Current Version | Previous Version | Text Only | Print | Product List | Glossary On
Versions: 1 2 3 4 5 6 7 8 9 10 11 12 13 14
000
FTUS44 KOUN 201720
TAFOUN
TAF
KOUN 201720Z 2018/2118 14016G22KT P6SM BKN250
     FM210000 12011KT P6SM BKN120 BKN200
      TEMPO 2103/2106 P6SM -SHRA OVC050
     FM210800 12012KT 6SM -RA SCT008 OVC020
     FM211500 10009KT P6SM -SHRA OVC025=

USA.gov is the U.S. government's official web portal to all federal, state and local government web resources and services.